SeattleWeather.com

KSEA - Seattle/Metro, Washington, USA
Distance from station: SSW 11mi, 18km
Updated: Fri, 12-Jul-2024 10:53pm PDT
Clear
Clear
 Wind from NW
Wind: NW 3 mph , 6 km/h
Temperature: 72°F , 22°C
Dew Point: 52°F , 11°C
Humidity: 50%
Barometer: 30.01 inHg , 1016.3 hPa
Clouds: Clear
Visibility: 10 miles , 16 km
2024/07/13 05:53 KSEA 130553Z 31003KT 10SM CLR 22/11 A3001 RMK AO2 SLP168 T02170111 10283 20211 53000
KBFI - Seattle/Boeing, Washington, USA
Distance from station: SSW 2mi, 3km
Updated: Fri, 12-Jul-2024 10:53pm PDT
Clear
Clear
 Wind from calm
Wind: Calm
Temperature: 73°F , 23°C
Dew Point: 55°F , 13°C
Humidity: 53%
Barometer: 30.00 inHg , 1015.9 hPa
Clouds: Clear
Visibility: 10 miles , 16 km
2024/07/13 05:53 KBFI 130553Z 00000KT 10SM CLR 23/13 A3000 RMK AO2 SLP160 T02280133 10283 20228 53005
NWS Forecast for Seattle, WA
National Weather Service Forecast for: Seattle, WA
Issued by: National Weather Service Seattle/Tacoma, WA
Updated: Fri, 12-Jul-2024 9:40pm PDT
 
  Saturday

Saturday: Sunny
Sunny
Sunday

Sunday: Sunny
Sunny
Monday

Monday: Sunny
Sunny
Tuesday

Tuesday: Sunny
Sunny
Wednesday

Wednesday: Mostly Sunny
Mostly Sunny
Thursday

Thursday: Mostly Sunny
Mostly Sunny
Friday

Friday: Mostly Sunny
Mostly Sunny
  Hi 86 °F Hi 85 °F Hi 83 °F Hi 84 °F Hi 88 °F Hi 85 °F Hi 83 °F
 
Tonight

Tonight: Clear
Clear
Saturday
Night
Saturday Night: Mostly Clear
Mostly Clear
Sunday
Night
Sunday Night: Mostly Clear
Mostly Clear
Monday
Night
Monday Night: Mostly Clear
Mostly Clear
Tuesday
Night
Tuesday Night: Mostly Clear
Mostly Clear
Wednesday
Night
Wednesday Night: Partly Cloudy
Partly Cloudy
Thursday
Night
Thursday Night: Mostly Clear
Mostly Clear
 
Lo 60 °F Lo 61 °F Lo 59 °F Lo 60 °F Lo 62 °F Lo 63 °F Lo 62 °F  

 

Tonight
 
Clear. Low around 60, with temperatures rising to around 62 overnight. North northeast wind around 3 mph.
Saturday
 
Sunny, with a high near 86. North northwest wind 2 to 7 mph.
Saturday Night
 
Mostly clear, with a low around 61. North wind 3 to 7 mph.
Sunday
 
Sunny, with a high near 85. Southwest wind 3 to 7 mph.
Sunday Night
 
Mostly clear, with a low around 59. Southwest wind around 6 mph.
Monday
 
Sunny, with a high near 83.
Monday Night
 
Mostly clear, with a low around 60.
Tuesday
 
Sunny, with a high near 84.
Tuesday Night
 
Mostly clear, with a low around 62.
Wednesday
 
Mostly sunny, with a high near 88.
Wednesday Night
 
Partly cloudy, with a low around 63.
Thursday
 
Mostly sunny, with a high near 85.
Thursday Night
 
Mostly clear, with a low around 62.
Friday
 
Mostly sunny, with a high near 83.

 

Forecast from NOAA-NWS for Seattle, WA.